createdAt,value
2022-11-29T00:02:16.913Z,24.80
2022-11-29T00:04:43.854Z,26.20
2022-11-29T00:07:10.534Z,23.27
2022-11-29T00:09:37.178Z,28.07
2022-11-29T00:12:12.740Z,19.40
2022-11-29T00:14:39.261Z,18.57
2022-11-29T00:17:06.040Z,23.73
2022-11-29T00:19:32.610Z,20.10
2022-11-29T00:21:59.090Z,21.80
2022-11-29T00:24:25.740Z,40.43
2022-11-29T00:26:52.315Z,16.80
2022-11-29T00:29:18.809Z,19.20
2022-11-29T00:31:45.315Z,32.30
2022-11-29T00:34:11.853Z,24.60
2022-11-29T00:36:38.388Z,23.50
2022-11-29T00:39:04.877Z,20.63
2022-11-29T00:41:31.373Z,25.60
2022-11-29T00:43:57.901Z,48.70
2022-11-29T00:46:25.099Z,31.07
2022-11-29T00:48:51.623Z,22.37
2022-11-29T00:51:18.122Z,34.37
2022-11-29T00:53:44.659Z,24.70
2022-11-29T00:56:11.174Z,17.70
2022-11-29T00:58:37.769Z,23.07
2022-11-29T01:01:04.338Z,18.77
2022-11-29T01:03:30.892Z,46.57
2022-11-29T01:05:57.375Z,24.13
2022-11-29T01:08:23.891Z,38.87
2022-11-29T01:10:50.371Z,41.27
2022-11-29T01:13:16.945Z,18.07
2022-11-29T01:15:43.469Z,22.33
2022-11-29T01:18:10.388Z,45.90
2022-11-29T01:20:36.864Z,51.07
2022-11-29T01:23:03.481Z,96.00
2022-11-29T01:25:31.972Z,89.83
2022-11-29T01:27:58.507Z,36.67
2022-11-29T01:30:25.688Z,137.00
2022-11-29T01:32:52.259Z,143.87
2022-11-29T01:35:18.735Z,45.10
2022-11-29T01:37:45.218Z,21.07
2022-11-29T01:40:11.749Z,209.83
2022-11-29T01:42:38.242Z,16.23
2022-11-29T01:45:04.780Z,28.20
2022-11-29T01:47:31.308Z,159.73
2022-11-29T01:49:57.795Z,21.30
2022-11-29T01:52:24.369Z,18.57
2022-11-29T01:54:50.859Z,96.17
2022-11-29T01:57:17.337Z,52.73
2022-11-29T01:59:43.833Z,122.33
2022-11-29T02:02:10.353Z,18.03
2022-11-29T02:04:36.959Z,19.53
2022-11-29T02:07:03.462Z,22.77
2022-11-29T02:09:29.954Z,18.53
2022-11-29T02:11:56.509Z,13.13
2022-11-29T02:14:23.070Z,46.80
2022-11-29T02:16:55.008Z,64.70
2022-11-29T02:19:22.978Z,30.37
2022-11-29T02:21:49.501Z,36.00
2022-11-29T02:24:16.047Z,89.10
2022-11-29T02:26:42.527Z,35.27
2022-11-29T02:29:09.102Z,48.17
2022-11-29T02:31:35.587Z,38.83
2022-11-29T02:34:02.126Z,44.17
2022-11-29T02:36:28.615Z,17.90
2022-11-29T02:38:55.181Z,15.57
2022-11-29T02:41:21.863Z,43.60
2022-11-29T02:43:48.395Z,51.10
2022-11-29T02:46:14.887Z,14.50
2022-11-29T02:48:41.489Z,10.50
2022-11-29T02:51:08.006Z,17.33
2022-11-29T02:53:34.529Z,14.57
2022-11-29T02:56:01.119Z,13.70
2022-11-29T02:58:27.700Z,11.30
2022-11-29T03:00:54.176Z,8.90
2022-11-29T03:03:20.715Z,20.13
2022-11-29T03:05:47.231Z,12.70
2022-11-29T03:08:17.653Z,9.43
2022-11-29T03:10:44.138Z,9.93
2022-11-29T03:13:10.616Z,8.00
2022-11-29T03:15:37.318Z,33.37
2022-11-29T03:18:03.932Z,21.83
2022-11-29T03:20:30.494Z,12.37
2022-11-29T03:22:56.979Z,8.27
2022-11-29T03:25:23.502Z,17.03
2022-11-29T03:27:49.978Z,16.60
2022-11-29T03:30:16.521Z,8.00
2022-11-29T03:32:43.010Z,12.63
2022-11-29T03:35:09.504Z,7.53
2022-11-29T03:37:36.244Z,5.80
2022-11-29T03:40:02.745Z,4.23
2022-11-29T03:42:29.259Z,5.13
2022-11-29T03:44:55.790Z,7.57
2022-11-29T03:47:22.272Z,5.47
2022-11-29T03:49:48.756Z,4.90
2022-11-29T03:52:15.223Z,4.07
2022-11-29T03:54:43.219Z,2.80
2022-11-29T03:57:10.021Z,5.13
2022-11-29T03:59:36.530Z,3.03
2022-11-29T04:02:03.736Z,168.70
2022-11-29T04:04:30.241Z,4.57
2022-11-29T04:06:56.748Z,3.00
2022-11-29T04:09:23.227Z,29.70
2022-11-29T04:11:59.195Z,2.80
2022-11-29T04:14:25.729Z,79.03
2022-11-29T04:16:52.275Z,2.43
2022-11-29T04:19:18.822Z,3.27
2022-11-29T04:21:45.300Z,58.10
2022-11-29T04:24:11.791Z,4.60
2022-11-29T04:26:38.290Z,40.27
2022-11-29T04:29:04.779Z,148.53
2022-11-29T04:31:31.357Z,47.53
2022-11-29T04:33:57.871Z,5.43
2022-11-29T04:36:24.360Z,3.87
2022-11-29T04:38:50.856Z,33.30
2022-11-29T04:41:17.338Z,81.37
2022-11-29T04:43:43.902Z,10.67
2022-11-29T04:46:10.494Z,5.77
2022-11-29T04:48:37.323Z,5.33
2022-11-29T04:51:03.839Z,9.43
2022-11-29T04:53:30.580Z,115.50
2022-11-29T04:55:57.089Z,57.40
2022-11-29T04:58:23.688Z,29.70
2022-11-29T05:00:50.187Z,4.30
2022-11-29T05:03:16.901Z,5.23
2022-11-29T05:05:43.406Z,10.87
2022-11-29T05:08:09.943Z,71.63
2022-11-29T05:10:36.409Z,4.90
2022-11-29T05:13:02.916Z,3.63
2022-11-29T05:15:29.388Z,3.53
2022-11-29T05:17:56.513Z,8.83
2022-11-29T05:20:23.036Z,58.77
2022-11-29T05:22:49.536Z,7.33
2022-11-29T05:25:16.014Z,7.50
2022-11-29T05:27:42.557Z,2.70
2022-11-29T05:30:09.122Z,3.50
2022-11-29T05:32:35.750Z,2.73
2022-11-29T05:35:02.252Z,3.83
2022-11-29T05:37:28.756Z,2.73
2022-11-29T05:39:55.227Z,15.93
2022-11-29T05:42:21.754Z,29.10
2022-11-29T05:44:48.291Z,3.07
2022-11-29T05:47:14.834Z,70.07
2022-11-29T05:49:41.330Z,184.90
2022-11-29T05:52:07.805Z,20.63
2022-11-29T05:54:34.283Z,2.80
2022-11-29T05:57:00.802Z,2.67
2022-11-29T05:59:27.332Z,66.77
2022-11-29T06:01:53.960Z,4.33
2022-11-29T06:04:21.260Z,6.47
2022-11-29T06:06:47.784Z,5.47
2022-11-29T06:09:14.282Z,20.33
2022-11-29T06:11:40.799Z,5.83
2022-11-29T06:14:07.286Z,5.20
2022-11-29T06:16:33.819Z,5.33
2022-11-29T06:19:00.353Z,8.97
2022-11-29T06:21:27.462Z,4.50
2022-11-29T06:23:54.108Z,32.10
2022-11-29T06:26:22.583Z,32.80
2022-11-29T06:28:49.078Z,27.23
2022-11-29T06:31:15.631Z,146.27
2022-11-29T06:33:42.182Z,4.50
2022-11-29T06:36:08.715Z,4.50
2022-11-29T06:38:35.273Z,9.43
2022-11-29T06:41:02.532Z,6.80
2022-11-29T06:43:29.233Z,10.43
2022-11-29T06:45:55.817Z,8.23
2022-11-29T06:48:22.343Z,5.37
2022-11-29T06:50:48.914Z,10.83
2022-11-29T06:53:15.431Z,7.20
2022-11-29T06:55:42.051Z,44.77
2022-11-29T06:58:08.624Z,14.47
2022-11-29T07:00:35.202Z,9.70
2022-11-29T07:03:01.767Z,8.70
2022-11-29T07:05:28.404Z,9.90
2022-11-29T07:07:55.024Z,14.50
2022-11-29T07:10:21.642Z,14.63
2022-11-29T07:12:48.191Z,12.40
2022-11-29T07:15:14.762Z,8.77
2022-11-29T07:17:41.390Z,11.77
2022-11-29T07:20:08.610Z,10.60
2022-11-29T07:22:35.209Z,8.67
2022-11-29T07:25:01.712Z,10.73
2022-11-29T07:27:28.213Z,14.57
2022-11-29T07:29:54.734Z,16.80
2022-11-29T07:32:21.292Z,18.70
2022-11-29T07:34:48.535Z,11.97
2022-11-29T07:37:15.199Z,15.83
2022-11-29T07:39:41.788Z,16.00
2022-11-29T07:42:08.357Z,24.33
2022-11-29T07:44:34.890Z,19.00
2022-11-29T07:47:01.529Z,18.03
2022-11-29T07:49:28.128Z,12.80
2022-11-29T07:51:54.720Z,22.90
2022-11-29T07:54:22.201Z,16.53
2022-11-29T07:56:48.806Z,18.27
2022-11-29T07:59:15.410Z,19.23
2022-11-29T08:01:42.170Z,21.90
2022-11-29T08:04:08.716Z,28.30
2022-11-29T08:06:35.199Z,21.00
2022-11-29T08:09:01.699Z,27.03
2022-11-29T08:11:28.272Z,21.33
2022-11-29T08:13:54.763Z,26.10
2022-11-29T08:16:21.277Z,41.83
2022-11-29T08:18:48.412Z,31.67
2022-11-29T08:21:18.233Z,27.93
2022-11-29T08:23:44.798Z,31.60
2022-11-29T08:26:11.504Z,28.63
2022-11-29T08:28:38.094Z,30.90
2022-11-29T08:31:04.579Z,27.20
2022-11-29T08:33:31.344Z,34.47
2022-11-29T08:35:57.855Z,37.90
2022-11-29T08:38:24.395Z,34.50
2022-11-29T08:40:50.869Z,34.57
2022-11-29T08:43:17.357Z,34.43
2022-11-29T08:45:43.884Z,36.53
2022-11-29T08:48:10.466Z,52.80
2022-11-29T08:50:36.948Z,27.47
2022-11-29T08:53:22.451Z,36.40
2022-11-29T08:55:48.995Z,53.33
2022-11-29T08:58:15.531Z,49.03
2022-11-29T09:00:42.053Z,44.47
2022-11-29T09:03:27.356Z,38.70
2022-11-29T09:05:53.965Z,33.47
2022-11-29T09:08:20.530Z,37.43
2022-11-29T09:10:47.328Z,46.00
2022-11-29T09:13:13.872Z,62.83
2022-11-29T09:15:41.744Z,44.50
2022-11-29T09:18:08.287Z,94.27
2022-11-29T09:20:34.873Z,61.03
2022-11-29T09:23:01.427Z,81.67
2022-11-29T09:25:27.906Z,89.43
2022-11-29T09:27:54.393Z,105.53
2022-11-29T09:30:23.827Z,99.17
2022-11-29T09:32:50.559Z,105.07
2022-11-29T09:35:17.425Z,114.97
2022-11-29T09:37:43.982Z,126.37
2022-11-29T09:40:10.479Z,99.73
2022-11-29T09:42:36.955Z,114.57
2022-11-29T09:45:04.030Z,120.73
2022-11-29T09:47:32.728Z,97.70
2022-11-29T09:49:59.228Z,118.37
2022-11-29T09:52:25.697Z,117.57
2022-11-29T09:54:52.366Z,110.97
2022-11-29T09:57:19.622Z,139.27
2022-11-29T09:59:46.135Z,119.27
2022-11-29T10:02:15.867Z,120.23
2022-11-29T10:04:45.118Z,131.70
2022-11-29T10:07:11.887Z,121.40
2022-11-29T10:09:38.599Z,115.87
2022-11-29T10:12:05.105Z,145.40
2022-11-29T10:14:31.607Z,118.20
2022-11-29T10:16:58.205Z,97.33
2022-11-29T10:19:24.719Z,136.90
2022-11-29T10:21:51.236Z,114.70
2022-11-29T10:24:19.074Z,89.60
2022-11-29T10:26:45.718Z,93.37
2022-11-29T10:29:12.214Z,108.93
2022-11-29T10:31:42.652Z,110.70
2022-11-29T10:34:09.188Z,93.23
2022-11-29T10:36:35.687Z,94.20
2022-11-29T10:39:02.178Z,81.23
2022-11-29T10:41:28.665Z,80.83
2022-11-29T10:43:55.141Z,101.73
2022-11-29T10:46:21.842Z,111.13
2022-11-29T10:48:48.500Z,108.07
2022-11-29T10:51:14.992Z,105.23
2022-11-29T10:53:41.480Z,139.07
2022-11-29T10:56:08.046Z,147.23
2022-11-29T10:58:34.625Z,117.67
2022-11-29T11:01:01.306Z,125.27
2022-11-29T11:03:27.846Z,135.00
2022-11-29T11:05:54.415Z,122.20
2022-11-29T11:08:20.929Z,125.50
2022-11-29T11:10:53.031Z,131.90
2022-11-29T11:13:21.084Z,116.50
2022-11-29T11:15:47.624Z,112.20
2022-11-29T11:18:14.104Z,109.87
2022-11-29T11:20:40.604Z,103.73
2022-11-29T11:23:07.146Z,153.20
2022-11-29T11:25:36.677Z,147.00
2022-11-29T11:28:03.154Z,171.87
2022-11-29T11:30:29.731Z,104.80
2022-11-29T11:32:56.237Z,107.03
2022-11-29T11:35:22.767Z,103.97
2022-11-29T11:37:49.251Z,113.17
2022-11-29T11:40:15.767Z,98.87
2022-11-29T11:42:42.699Z,101.83
2022-11-29T11:45:09.363Z,93.83
2022-11-29T11:47:36.251Z,107.60
2022-11-29T11:50:03.344Z,94.50
2022-11-29T11:52:29.848Z,113.50
2022-11-29T11:54:56.443Z,78.47
2022-11-29T11:57:23.229Z,91.43
2022-11-29T11:59:49.805Z,87.53
2022-11-29T12:02:16.469Z,76.50
2022-11-29T12:04:43.403Z,73.00
2022-11-29T12:07:10.141Z,75.80
2022-11-29T12:09:36.681Z,66.13
2022-11-29T12:12:03.582Z,67.50
2022-11-29T12:14:30.126Z,77.13
2022-11-29T12:16:56.621Z,79.03
2022-11-29T12:19:23.115Z,91.53
2022-11-29T12:21:52.381Z,67.30
2022-11-29T12:24:18.912Z,51.03
2022-11-29T12:27:00.917Z,69.40
2022-11-29T12:29:27.468Z,86.30
2022-11-29T12:31:55.155Z,67.40
2022-11-29T12:34:22.770Z,68.97
2022-11-29T12:36:49.408Z,72.20
2022-11-29T12:39:15.919Z,67.30
2022-11-29T12:41:42.435Z,81.33
2022-11-29T12:44:09.284Z,66.50
2022-11-29T12:46:35.847Z,76.60
2022-11-29T12:49:02.484Z,85.40
2022-11-29T12:51:29.110Z,63.90
2022-11-29T12:53:55.599Z,63.80
2022-11-29T12:56:22.141Z,57.10
2022-11-29T12:58:48.662Z,84.30
2022-11-29T13:01:15.251Z,85.97
2022-11-29T13:03:41.835Z,69.67
2022-11-29T13:06:08.367Z,54.03
2022-11-29T13:08:34.850Z,66.73
2022-11-29T13:11:01.399Z,57.30
2022-11-29T13:13:27.887Z,53.83
2022-11-29T13:15:54.575Z,50.17
2022-11-29T13:18:21.108Z,64.57
2022-11-29T13:20:47.600Z,67.47
2022-11-29T13:23:14.248Z,50.43
2022-11-29T13:25:40.768Z,65.90
2022-11-29T13:28:07.258Z,44.43
2022-11-29T13:30:33.744Z,58.67
2022-11-29T13:33:00.252Z,58.40
2022-11-29T13:35:26.992Z,55.83
2022-11-29T13:37:55.329Z,54.13
2022-11-29T13:40:22.279Z,58.63
2022-11-29T13:42:50.946Z,47.03
2022-11-29T13:45:17.425Z,46.57
2022-11-29T13:47:43.938Z,50.53
2022-11-29T13:50:10.429Z,56.40
2022-11-29T13:52:36.948Z,38.73
2022-11-29T13:55:03.438Z,66.00
2022-11-29T13:57:38.938Z,31.83
2022-11-29T14:00:16.505Z,55.43
2022-11-29T14:02:43.093Z,39.03
2022-11-29T14:05:09.614Z,49.13
2022-11-29T14:07:36.382Z,54.40
2022-11-29T14:10:03.244Z,44.73
2022-11-29T14:12:31.037Z,44.97
2022-11-29T14:14:57.647Z,34.53
2022-11-29T14:17:24.128Z,46.10
2022-11-29T14:19:50.629Z,39.93
2022-11-29T14:22:17.123Z,61.33
2022-11-29T14:24:43.902Z,48.93
2022-11-29T14:27:12.331Z,39.80
2022-11-29T14:29:38.827Z,45.20
2022-11-29T14:32:05.328Z,48.47
2022-11-29T14:34:31.829Z,43.73
2022-11-29T14:36:58.349Z,42.73
2022-11-29T14:39:24.977Z,41.27
2022-11-29T14:41:51.483Z,39.60
2022-11-29T14:44:18.025Z,70.50
2022-11-29T14:46:44.568Z,49.93
2022-11-29T14:49:11.133Z,40.17
2022-11-29T14:51:37.602Z,37.97
2022-11-29T14:54:04.159Z,36.00
2022-11-29T14:56:31.511Z,49.77
2022-11-29T14:58:57.997Z,41.83
2022-11-29T15:01:24.527Z,39.60
2022-11-29T15:03:51.163Z,58.43
2022-11-29T15:06:17.956Z,36.87
2022-11-29T15:08:44.483Z,41.07
2022-11-29T15:11:10.969Z,36.73
2022-11-29T15:13:37.515Z,38.00
2022-11-29T15:16:08.882Z,37.63
2022-11-29T15:18:35.946Z,40.90
2022-11-29T15:21:02.423Z,46.53
2022-11-29T15:23:28.907Z,39.97
2022-11-29T15:25:55.415Z,40.00
2022-11-29T15:28:22.187Z,32.23
2022-11-29T15:30:48.931Z,42.37
2022-11-29T15:33:15.451Z,34.33
2022-11-29T15:35:42.017Z,41.27
2022-11-29T15:38:08.579Z,33.80
2022-11-29T15:40:36.947Z,38.50
2022-11-29T15:43:04.975Z,44.27
2022-11-29T15:45:31.554Z,52.73
2022-11-29T15:47:58.159Z,53.13
2022-11-29T15:50:25.731Z,78.73
2022-11-29T15:52:52.234Z,81.47
2022-11-29T15:55:18.749Z,81.13
2022-11-29T15:57:45.282Z,87.60
2022-11-29T16:00:11.769Z,84.90
2022-11-29T16:02:38.332Z,56.77
2022-11-29T16:05:04.819Z,83.27
2022-11-29T16:07:34.597Z,60.03
2022-11-29T16:10:01.146Z,56.63
2022-11-29T16:12:27.608Z,84.50
2022-11-29T16:14:55.719Z,117.03
2022-11-29T16:17:22.234Z,94.17
2022-11-29T16:19:48.768Z,88.13
2022-11-29T16:22:15.317Z,75.07
2022-11-29T16:24:41.906Z,79.97
2022-11-29T16:27:08.476Z,99.20
2022-11-29T16:29:35.022Z,72.13
2022-11-29T16:32:01.529Z,75.97
2022-11-29T16:34:28.180Z,79.87
2022-11-29T16:37:00.632Z,86.60
2022-11-29T16:39:27.575Z,68.90
2022-11-29T16:41:54.067Z,83.63
2022-11-29T16:44:20.541Z,87.50
2022-11-29T16:46:47.036Z,76.93
2022-11-29T16:49:13.542Z,73.60
2022-11-29T16:51:40.718Z,78.33
2022-11-29T16:54:07.222Z,59.00
2022-11-29T16:56:33.709Z,58.47
2022-11-29T16:59:24.688Z,68.80
2022-11-29T17:01:46.783Z,104.50
2022-11-29T17:04:13.336Z,70.80
2022-11-29T17:06:51.096Z,94.03
2022-11-29T17:09:17.587Z,84.90
2022-11-29T17:11:44.109Z,70.47
2022-11-29T17:14:10.875Z,91.93
2022-11-29T17:16:37.442Z,74.07
2022-11-29T17:19:04.017Z,81.57
2022-11-29T17:21:31.299Z,63.97
2022-11-29T17:23:57.807Z,94.53
2022-11-29T17:26:24.335Z,73.83
2022-11-29T17:28:51.034Z,95.83
2022-11-29T17:31:17.657Z,95.57
2022-11-29T17:33:44.285Z,72.20
2022-11-29T17:36:10.893Z,109.50
2022-11-29T17:38:37.406Z,101.03
2022-11-29T17:41:04.021Z,93.20
2022-11-29T17:43:30.532Z,83.37
2022-11-29T17:45:57.345Z,93.97
2022-11-29T17:48:23.896Z,66.27
2022-11-29T17:50:50.466Z,76.83
2022-11-29T17:53:16.997Z,82.17
2022-11-29T17:55:43.527Z,83.67
2022-11-29T17:58:10.068Z,92.80
2022-11-29T18:00:36.604Z,82.93
2022-11-29T18:03:03.274Z,72.20
2022-11-29T18:05:34.587Z,102.10
2022-11-29T18:08:01.661Z,98.63
2022-11-29T18:10:28.265Z,91.30
2022-11-29T18:12:54.856Z,95.13
2022-11-29T18:15:21.447Z,89.67
2022-11-29T18:17:48.063Z,102.40
2022-11-29T18:20:14.635Z,97.50
2022-11-29T18:22:41.135Z,94.63
2022-11-29T18:25:36.810Z,108.63
2022-11-29T18:27:54.317Z,90.60
2022-11-29T18:30:20.903Z,85.03
2022-11-29T18:32:47.482Z,96.90
2022-11-29T18:35:14.041Z,95.23
2022-11-29T18:38:13.410Z,86.27
2022-11-29T18:40:27.281Z,92.00
2022-11-29T18:42:53.784Z,85.17
2022-11-29T18:45:20.296Z,95.90
2022-11-29T18:47:47.035Z,96.93
2022-11-29T18:50:13.720Z,126.87
2022-11-29T18:52:40.921Z,88.93
2022-11-29T18:55:07.468Z,92.13
2022-11-29T18:57:34.030Z,79.83
2022-11-29T19:00:00.536Z,85.50
2022-11-29T19:02:27.042Z,69.87
2022-11-29T19:04:53.730Z,107.80
2022-11-29T19:07:20.290Z,82.20
2022-11-29T19:09:46.819Z,86.47
2022-11-29T19:12:13.317Z,94.97
2022-11-29T19:14:42.743Z,73.47
2022-11-29T19:17:11.752Z,93.20
2022-11-29T19:19:38.506Z,90.50
2022-11-29T19:22:05.090Z,88.97
2022-11-29T19:24:31.582Z,69.80
2022-11-29T19:26:59.185Z,76.43
2022-11-29T19:29:25.726Z,91.53
2022-11-29T19:31:52.287Z,85.70
2022-11-29T19:34:18.802Z,105.90
2022-11-29T19:36:45.648Z,114.33
2022-11-29T19:39:12.713Z,111.17
2022-11-29T19:41:39.525Z,76.63
2022-11-29T19:44:06.052Z,96.47
2022-11-29T19:46:32.637Z,89.43
2022-11-29T19:48:59.259Z,91.27
2022-11-29T19:51:25.905Z,90.67
2022-11-29T19:53:52.505Z,89.07
2022-11-29T19:56:20.553Z,80.93
2022-11-29T19:58:47.069Z,89.63
2022-11-29T20:01:13.710Z,72.80
2022-11-29T20:03:40.485Z,88.23
2022-11-29T20:06:07.245Z,89.03
2022-11-29T20:08:33.944Z,80.57
2022-11-29T20:11:00.449Z,75.97
2022-11-29T20:13:26.958Z,63.80
2022-11-29T20:15:53.485Z,84.73
2022-11-29T20:18:23.329Z,84.40
2022-11-29T20:20:49.804Z,73.33
2022-11-29T20:23:16.306Z,94.53
2022-11-29T20:25:42.838Z,63.60
2022-11-29T20:28:09.688Z,87.60
2022-11-29T20:30:36.233Z,71.47
2022-11-29T20:33:02.757Z,67.37
2022-11-29T20:35:29.365Z,67.73
2022-11-29T20:37:55.992Z,53.77
2022-11-29T20:40:22.472Z,68.60
2022-11-29T20:42:49.009Z,82.47
2022-11-29T20:45:15.574Z,102.83
2022-11-29T20:47:42.133Z,82.23
2022-11-29T20:50:08.730Z,97.13
2022-11-29T20:52:35.288Z,84.77
2022-11-29T20:55:01.876Z,108.17
2022-11-29T20:57:28.404Z,85.07
2022-11-29T20:59:55.059Z,72.10
2022-11-29T21:02:21.597Z,88.60
2022-11-29T21:04:48.311Z,71.03
2022-11-29T21:07:15.172Z,66.97
2022-11-29T21:09:41.653Z,82.30
2022-11-29T21:12:08.270Z,91.03
2022-11-29T21:14:34.873Z,69.87
2022-11-29T21:17:01.692Z,79.77
2022-11-29T21:19:28.348Z,85.37
2022-11-29T21:21:54.856Z,88.10
2022-11-29T21:24:21.418Z,81.23
2022-11-29T21:26:47.912Z,110.63
2022-11-29T21:29:14.454Z,72.53
2022-11-29T21:31:41.095Z,73.60
2022-11-29T21:34:08.634Z,71.00
2022-11-29T21:36:35.217Z,67.13
2022-11-29T21:39:05.164Z,86.07
2022-11-29T21:41:32.329Z,74.60
2022-11-29T21:44:06.425Z,76.20
2022-11-29T21:46:33.575Z,77.60
2022-11-29T21:49:00.198Z,78.00
2022-11-29T21:51:26.716Z,97.97
2022-11-29T21:53:53.299Z,67.17
2022-11-29T21:56:19.922Z,86.17
2022-11-29T21:58:46.446Z,60.00
2022-11-29T22:01:13.318Z,81.87
2022-11-29T22:03:40.022Z,62.50
2022-11-29T22:06:06.612Z,67.20
2022-11-29T22:08:33.144Z,73.50
2022-11-29T22:10:59.693Z,80.67
2022-11-29T22:13:26.215Z,86.00
2022-11-29T22:15:52.766Z,88.20
2022-11-29T22:18:19.319Z,75.33
2022-11-29T22:20:47.257Z,62.30
2022-11-29T22:23:13.783Z,54.33
2022-11-29T22:25:40.357Z,58.17
2022-11-29T22:28:06.859Z,79.33
2022-11-29T22:30:33.536Z,63.57
2022-11-29T22:33:00.299Z,95.37
2022-11-29T22:35:27.079Z,62.70
2022-11-29T22:37:53.710Z,56.70
2022-11-29T22:40:20.214Z,67.90
2022-11-29T22:42:46.916Z,57.13
2022-11-29T22:45:13.563Z,61.53
2022-11-29T22:47:40.082Z,73.77
2022-11-29T22:50:06.611Z,54.47
2022-11-29T22:52:33.119Z,48.67
2022-11-29T22:55:04.576Z,60.00
2022-11-29T22:57:31.692Z,81.17
2022-11-29T22:59:58.205Z,88.97
2022-11-29T23:02:24.773Z,83.80
2022-11-29T23:04:51.316Z,48.53
2022-11-29T23:07:17.874Z,61.13
2022-11-29T23:09:44.652Z,49.40
2022-11-29T23:12:11.235Z,77.63
2022-11-29T23:14:37.746Z,58.50
2022-11-29T23:17:04.304Z,59.87
2022-11-29T23:19:30.819Z,41.07
2022-11-29T23:21:57.335Z,46.97
2022-11-29T23:24:23.896Z,57.67
2022-11-29T23:26:50.446Z,60.77
2022-11-29T23:29:17.037Z,168.70
2022-11-29T23:31:43.589Z,72.03
2022-11-29T23:34:10.207Z,59.40
2022-11-29T23:36:36.816Z,81.10
2022-11-29T23:39:03.366Z,48.20
2022-11-29T23:41:29.935Z,57.93
2022-11-29T23:43:56.472Z,72.37
2022-11-29T23:46:23.010Z,44.67
2022-11-29T23:48:49.542Z,56.20
2022-11-29T23:51:16.067Z,50.93
2022-11-29T23:53:42.715Z,44.77
2022-11-29T23:56:09.258Z,116.77
2022-11-29T23:58:35.814Z,53.27
